Jellicoe, Canada
Current Conditions -  °F | °C
As of 8:00 PM on Tuesday 21 Oct 2014 (Local Time) from CYGQ Reporting Station
Clear Clear  
Wind Chill: 25°   Ceiling: Unl
Heat Index: 30°   Visibility: 15mi
Dew Point: 27°   Wind: 5mph
Humidity: 86%   Direction: 110°ESE
Pressure: 30.27"   Gusts: NA
Location:  49.68°N, 87.52°W
Report Text: CYGQ 220000Z 11004KT 15SM SKC M01/M03 A3027 RMK SLP273
Loading
Personal Weather Stations






























Interactive Weather Map
Tropical Storm Tracking
New forecast layout! Learn more

10-Day Weather Forecast

Advertisements
Track Severe Weather on mobile